createdAt,value
2023-06-17T00:00:39.304Z,101153.88
2023-06-17T00:03:06.245Z,101161.03
2023-06-17T00:05:32.783Z,101163.75
2023-06-17T00:07:59.451Z,101171.19
2023-06-17T00:10:25.949Z,101175.63
2023-06-17T00:12:52.822Z,101172.00
2023-06-17T00:15:21.651Z,101179.94
2023-06-17T00:17:48.357Z,101182.63
2023-06-17T00:20:15.623Z,101179.09
2023-06-17T00:22:44.361Z,101189.38
2023-06-17T00:25:12.911Z,101182.31
2023-06-17T00:27:40.394Z,101174.03
2023-06-17T00:30:08.528Z,101166.28
2023-06-17T00:32:38.054Z,101169.84
2023-06-17T00:35:06.566Z,101174.47
2023-06-17T00:37:33.614Z,101182.22
2023-06-17T00:40:00.346Z,101184.19
2023-06-17T00:42:27.097Z,101187.31
2023-06-17T00:44:53.678Z,101184.19
2023-06-17T00:47:20.931Z,101188.13
2023-06-17T00:49:48.270Z,101184.38
2023-06-17T00:52:35.663Z,101179.44
2023-06-17T00:55:02.932Z,101184.75
2023-06-17T00:57:30.534Z,101188.91
2023-06-17T00:59:56.969Z,101188.69
2023-06-17T01:05:02.462Z,101179.28
2023-06-17T01:07:51.928Z,101169.94
2023-06-17T01:10:43.651Z,101174.91
2023-06-17T01:13:13.321Z,101174.00
2023-06-17T01:15:40.841Z,101190.28
2023-06-17T01:18:08.970Z,101184.19
2023-06-17T01:20:37.513Z,101188.66
2023-06-17T01:23:06.399Z,101183.50
2023-06-17T01:25:33.212Z,101189.97
2023-06-17T01:28:02.166Z,101185.91
2023-06-17T01:30:30.039Z,101187.75
2023-06-17T01:33:00.838Z,101197.81
2023-06-17T01:35:33.221Z,101196.59
2023-06-17T01:38:10.843Z,101191.66
2023-06-17T01:40:41.278Z,101187.03
2023-06-17T01:43:09.873Z,101193.41
2023-06-17T01:45:36.903Z,101199.25
2023-06-17T01:48:04.081Z,101187.34
2023-06-17T01:50:31.128Z,101181.91
2023-06-17T01:52:57.527Z,101194.44
2023-06-17T01:55:23.906Z,101191.34
2023-06-17T01:57:50.455Z,101202.69
2023-06-17T02:00:18.493Z,101195.53
2023-06-17T02:02:45.538Z,101198.09
2023-06-17T02:05:13.517Z,101192.78
2023-06-17T02:07:41.720Z,101202.97
2023-06-17T02:10:08.408Z,101201.97
2023-06-17T02:12:34.846Z,101203.84
2023-06-17T02:15:01.205Z,101199.28
2023-06-17T02:17:28.385Z,101204.47
2023-06-17T02:19:55.765Z,101207.00
2023-06-17T02:22:22.655Z,101205.88
2023-06-17T02:24:49.418Z,101204.16
2023-06-17T02:27:17.645Z,101201.44
2023-06-17T02:29:44.826Z,101209.16
2023-06-17T02:32:11.353Z,101199.13
2023-06-17T02:34:38.411Z,101206.69
2023-06-17T02:37:05.501Z,101208.06
2023-06-17T02:39:32.194Z,101199.00
2023-06-17T02:42:00.946Z,101202.72
2023-06-17T02:44:28.778Z,101206.06
2023-06-17T02:46:55.383Z,101188.47
2023-06-17T02:49:21.945Z,101198.69
2023-06-17T02:51:48.874Z,101190.19
2023-06-17T02:54:15.385Z,101191.09
2023-06-17T02:56:42.009Z,101191.34
2023-06-17T02:59:09.756Z,101184.25
2023-06-17T03:01:41.430Z,101186.16
2023-06-17T03:04:11.793Z,101190.53
2023-06-17T03:06:42.096Z,101185.84
2023-06-17T03:09:09.802Z,101196.56
2023-06-17T03:11:37.610Z,101188.69
2023-06-17T03:14:04.936Z,101185.44
2023-06-17T03:16:35.321Z,101192.31
2023-06-17T03:19:02.580Z,101196.91
2023-06-17T03:21:30.662Z,101195.94
2023-06-17T03:24:00.302Z,101187.59
2023-06-17T03:26:26.922Z,101197.81
2023-06-17T03:28:54.550Z,101192.19
2023-06-17T03:31:21.718Z,101198.25
2023-06-17T03:33:51.287Z,101200.88
2023-06-17T03:36:19.621Z,101201.66
2023-06-17T03:38:49.067Z,101204.31
2023-06-17T03:41:16.003Z,101197.78
2023-06-17T03:43:42.357Z,101196.22
2023-06-17T03:46:11.130Z,101199.44
2023-06-17T03:48:37.631Z,101197.44
2023-06-17T03:51:04.050Z,101208.00
2023-06-17T03:53:30.634Z,101205.78
2023-06-17T03:55:57.177Z,101203.78
2023-06-17T03:58:23.766Z,101210.22
2023-06-17T04:00:50.973Z,101202.69
2023-06-17T04:03:19.470Z,101210.03
2023-06-17T04:05:45.968Z,101213.81
2023-06-17T04:08:13.084Z,101202.28
2023-06-17T04:10:39.557Z,101199.22
2023-06-17T04:13:05.936Z,101206.22
2023-06-17T04:15:32.390Z,101203.13
2023-06-17T04:17:58.933Z,101212.03
2023-06-17T04:20:26.792Z,101206.69
2023-06-17T04:22:53.447Z,101213.06
2023-06-17T04:25:22.151Z,101202.13
2023-06-17T04:27:54.927Z,101202.41
2023-06-17T04:30:22.014Z,101201.03
2023-06-17T04:32:51.513Z,101195.34
2023-06-17T04:35:19.956Z,101202.31
2023-06-17T04:37:56.204Z,101194.78
2023-06-17T04:40:23.820Z,101187.94
2023-06-17T04:42:51.667Z,101187.56
2023-06-17T04:45:18.783Z,101190.38
2023-06-17T04:47:46.529Z,101183.53
2023-06-17T04:50:14.203Z,101194.53
2023-06-17T04:52:44.747Z,101195.25
2023-06-17T04:55:15.403Z,101188.38
2023-06-17T04:57:46.077Z,101193.53
2023-06-17T05:00:13.680Z,101191.69
2023-06-17T05:02:41.142Z,101201.50
2023-06-17T05:05:08.359Z,101194.03
2023-06-17T05:07:36.538Z,101199.97
2023-06-17T05:10:03.790Z,101208.41
2023-06-17T05:12:33.525Z,101200.19
2023-06-17T05:15:00.028Z,101204.91
2023-06-17T05:17:26.944Z,101196.47
2023-06-17T05:19:53.916Z,101201.94
2023-06-17T05:22:20.767Z,101209.16
2023-06-17T05:24:47.475Z,101207.66
2023-06-17T05:27:14.570Z,101210.84
2023-06-17T05:29:41.910Z,101211.56
2023-06-17T05:32:08.339Z,101212.25
2023-06-17T05:34:35.128Z,101212.38
2023-06-17T05:37:01.844Z,101204.63
2023-06-17T05:39:28.365Z,101197.97
2023-06-17T05:41:55.425Z,101194.75
2023-06-17T05:44:22.038Z,101201.19
2023-06-17T05:46:48.614Z,101194.88
2023-06-17T05:49:16.094Z,101200.50
2023-06-17T05:51:43.003Z,101206.63
2023-06-17T05:54:09.415Z,101204.06
2023-06-17T05:56:35.935Z,101203.63
2023-06-17T05:59:02.552Z,101217.38
2023-06-17T06:01:28.954Z,101219.97
2023-06-17T06:03:55.788Z,101221.63
2023-06-17T06:06:22.208Z,101220.16
2023-06-17T06:08:48.811Z,101222.31
2023-06-17T06:11:17.253Z,101223.88
2023-06-17T06:13:44.069Z,101224.88
2023-06-17T06:16:10.508Z,101231.03
2023-06-17T06:18:37.206Z,101221.63
2023-06-17T06:21:03.914Z,101214.75
2023-06-17T06:23:31.172Z,101217.75
2023-06-17T06:25:57.692Z,101210.78
2023-06-17T06:28:24.331Z,101206.44
2023-06-17T06:30:50.723Z,101216.84
2023-06-17T06:33:17.272Z,101220.47
2023-06-17T06:35:44.327Z,101219.81
2023-06-17T06:38:10.932Z,101234.56
2023-06-17T06:40:37.484Z,101239.06
2023-06-17T06:43:04.215Z,101246.00
2023-06-17T06:45:32.485Z,101252.84
2023-06-17T06:47:59.477Z,101260.91
2023-06-17T06:50:26.436Z,101257.94
2023-06-17T06:52:54.875Z,101259.31
2023-06-17T06:55:21.424Z,101250.34
2023-06-17T06:57:47.889Z,101249.00
2023-06-17T07:00:15.707Z,101244.88
2023-06-17T07:02:42.583Z,101249.28
2023-06-17T07:05:09.785Z,101256.13
2023-06-17T07:07:36.273Z,101264.72
2023-06-17T07:10:02.831Z,101252.88
2023-06-17T07:12:29.350Z,101263.13
2023-06-17T07:14:56.836Z,101257.28
2023-06-17T07:17:26.415Z,101267.50
2023-06-17T07:19:53.154Z,101259.13
2023-06-17T07:22:19.668Z,101258.59
2023-06-17T07:24:46.490Z,101258.97
2023-06-17T07:27:13.934Z,101255.22
2023-06-17T07:29:40.433Z,101262.88
2023-06-17T07:32:07.367Z,101257.28
2023-06-17T07:34:33.989Z,101257.31
2023-06-17T07:37:01.995Z,101262.63
2023-06-17T07:39:28.465Z,101252.09
2023-06-17T07:41:55.352Z,101256.31
2023-06-17T07:44:22.079Z,101241.28
2023-06-17T07:46:50.078Z,101245.41
2023-06-17T07:49:16.853Z,101244.53
2023-06-17T07:51:43.204Z,101248.63
2023-06-17T07:54:09.527Z,101243.63
2023-06-17T07:56:36.308Z,101242.63
2023-06-17T07:59:03.320Z,101234.47
2023-06-17T08:01:29.909Z,101213.59
2023-06-17T08:03:56.793Z,101202.50
2023-06-17T08:06:23.455Z,101201.81
2023-06-17T08:08:49.940Z,101193.88
2023-06-17T08:11:16.539Z,101188.38
2023-06-17T08:13:42.922Z,101171.44
2023-06-17T08:16:09.423Z,101174.75
2023-06-17T08:18:35.832Z,101150.56
2023-06-17T08:21:02.332Z,101149.16
2023-06-17T08:23:28.756Z,101141.78
2023-06-17T08:25:55.212Z,101130.38
2023-06-17T08:28:21.647Z,101125.75
2023-06-17T08:30:50.294Z,101120.34
2023-06-17T08:33:16.708Z,101122.84
2023-06-17T08:35:43.177Z,101117.97
2023-06-17T08:38:10.022Z,101117.72
2023-06-17T08:40:37.989Z,101092.16
2023-06-17T08:43:04.741Z,101086.56
2023-06-17T08:45:31.883Z,101091.06
2023-06-17T08:47:59.095Z,101097.78
2023-06-17T08:50:27.722Z,101090.97
2023-06-17T08:52:55.376Z,101084.94
2023-06-17T08:55:22.591Z,101069.97
2023-06-17T08:58:10.753Z,101063.69
2023-06-17T09:00:37.324Z,101071.59
2023-06-17T09:03:08.382Z,101074.44
2023-06-17T09:05:36.274Z,101066.66
2023-06-17T09:08:02.860Z,101071.34
2023-06-17T09:10:30.099Z,101070.44
2023-06-17T09:13:00.514Z,101064.06
2023-06-17T09:15:27.453Z,101053.69
2023-06-17T09:17:54.873Z,101054.88
2023-06-17T09:20:21.869Z,101041.34
2023-06-17T09:22:49.137Z,101043.28
2023-06-17T09:25:17.084Z,101052.84
2023-06-17T09:28:05.280Z,101050.97
2023-06-17T09:30:38.359Z,101060.97
2023-06-17T09:33:17.982Z,101054.31
2023-06-17T09:35:44.613Z,101056.78
2023-06-17T09:38:11.184Z,101048.44
2023-06-17T09:40:39.337Z,101050.75
2023-06-17T09:43:25.834Z,101048.47
2023-06-17T09:46:06.282Z,101050.41
2023-06-17T09:48:40.130Z,101046.47
2023-06-17T09:51:10.936Z,101061.25
2023-06-17T09:53:38.708Z,101056.13
2023-06-17T09:56:07.909Z,101058.59
2023-06-17T09:58:35.840Z,101061.72
2023-06-17T10:01:07.429Z,101054.94
2023-06-17T10:03:34.995Z,101054.16
2023-06-17T10:06:21.093Z,101056.00
2023-06-17T10:08:53.636Z,101044.16
2023-06-17T10:11:21.514Z,101038.78
2023-06-17T10:14:01.519Z,101038.50
2023-06-17T10:16:32.189Z,101035.59
2023-06-17T10:19:01.656Z,101039.34
2023-06-17T10:21:31.239Z,101038.81
2023-06-17T10:24:01.565Z,101035.78
2023-06-17T10:26:29.906Z,101039.34
2023-06-17T10:28:56.597Z,101041.44
2023-06-17T10:31:31.076Z,101042.47
2023-06-17T10:34:01.411Z,101031.44
2023-06-17T10:36:30.099Z,101033.16
2023-06-17T10:39:04.478Z,101038.25
2023-06-17T10:41:43.335Z,101034.75
2023-06-17T10:44:34.970Z,101042.22
2023-06-17T10:47:02.995Z,101036.75
2023-06-17T10:49:43.051Z,101047.09
2023-06-17T10:52:13.873Z,101046.31
2023-06-17T10:54:54.561Z,101038.81
2023-06-17T10:57:33.039Z,101037.56
2023-06-17T11:00:09.911Z,101033.50
2023-06-17T11:02:38.692Z,101034.47
2023-06-17T11:05:07.594Z,101032.38
2023-06-17T11:07:35.214Z,101021.66
2023-06-17T11:10:02.019Z,101022.06
2023-06-17T11:12:28.496Z,101018.53
2023-06-17T11:14:55.887Z,101030.47
2023-06-17T11:17:22.760Z,101023.16
2023-06-17T11:19:49.340Z,101024.38
2023-06-17T11:22:17.652Z,101024.22
2023-06-17T11:24:45.279Z,101020.78
2023-06-17T11:27:13.361Z,101018.81
2023-06-17T11:29:43.772Z,101020.88
2023-06-17T11:32:11.796Z,101014.06
2023-06-17T11:34:38.308Z,101025.44
2023-06-17T11:37:07.778Z,101006.47
2023-06-17T11:39:35.637Z,101008.00
2023-06-17T11:42:04.635Z,101011.38
2023-06-17T11:44:36.290Z,101005.22
2023-06-17T11:47:07.603Z,100998.72
2023-06-17T11:49:34.680Z,101001.25
2023-06-17T11:52:11.017Z,100993.88
2023-06-17T11:54:52.260Z,100997.97
2023-06-17T11:57:23.071Z,100994.06
2023-06-17T11:59:51.380Z,100990.47
2023-06-17T12:02:19.198Z,100988.16
2023-06-17T12:04:47.018Z,100980.78
2023-06-17T12:07:13.802Z,100982.44
2023-06-17T12:09:51.571Z,100990.50
2023-06-17T12:12:33.658Z,100982.00
2023-06-17T12:15:14.847Z,100986.25
2023-06-17T12:17:45.059Z,100990.50
2023-06-17T12:20:18.932Z,100974.53
2023-06-17T12:22:47.966Z,100972.75
2023-06-17T12:25:14.703Z,100973.09
2023-06-17T12:27:42.228Z,100975.88
2023-06-17T12:30:10.352Z,100965.88
2023-06-17T12:32:37.811Z,100968.91
2023-06-17T12:35:06.602Z,100966.31
2023-06-17T12:37:38.362Z,100976.16
2023-06-17T12:40:05.248Z,100970.56
2023-06-17T12:42:31.959Z,100968.97
2023-06-17T12:44:58.522Z,100972.22
2023-06-17T12:47:26.338Z,100966.63
2023-06-17T12:49:52.798Z,100974.59
2023-06-17T12:52:19.202Z,100964.97
2023-06-17T12:54:46.196Z,100962.19
2023-06-17T12:57:15.550Z,100967.88
2023-06-17T12:59:42.254Z,100969.47
2023-06-17T13:02:08.604Z,100973.81
2023-06-17T13:04:35.256Z,100964.66
2023-06-17T13:07:02.264Z,100967.91
2023-06-17T13:09:28.906Z,100966.34
2023-06-17T13:11:55.855Z,100965.91
2023-06-17T13:14:23.507Z,100968.00
2023-06-17T13:16:50.802Z,100962.19
2023-06-17T13:19:18.558Z,100965.34
2023-06-17T13:21:44.968Z,100958.06
2023-06-17T13:24:11.550Z,100963.09
2023-06-17T13:26:38.256Z,100963.09
2023-06-17T13:29:05.216Z,100962.56
2023-06-17T13:31:33.433Z,100955.78
2023-06-17T13:34:01.554Z,100950.59
2023-06-17T13:36:29.077Z,100949.97
2023-06-17T13:38:56.387Z,100941.72
2023-06-17T13:41:23.029Z,100939.28
2023-06-17T13:43:49.440Z,100928.81
2023-06-17T13:46:16.164Z,100939.50
2023-06-17T13:48:43.044Z,100926.88
2023-06-17T13:51:09.458Z,100930.53
2023-06-17T13:53:36.357Z,100923.28
2023-06-17T13:56:03.289Z,100926.44
2023-06-17T13:58:29.704Z,100919.47
2023-06-17T14:00:57.453Z,100910.00
2023-06-17T14:03:25.374Z,100914.47
2023-06-17T14:05:52.550Z,100922.47
2023-06-17T14:08:20.289Z,100913.81
2023-06-17T14:10:48.737Z,100913.09
2023-06-17T14:13:15.339Z,100901.38
2023-06-17T14:15:41.956Z,100907.31
2023-06-17T14:18:08.411Z,100906.63
2023-06-17T14:20:35.127Z,100909.53
2023-06-17T14:23:03.747Z,100907.56
2023-06-17T14:25:30.534Z,100902.13
2023-06-17T14:27:57.200Z,100902.97
2023-06-17T14:30:24.693Z,100897.50
2023-06-17T14:32:52.193Z,100909.06
2023-06-17T14:35:20.575Z,100910.81
2023-06-17T14:37:48.906Z,100907.69
2023-06-17T14:40:16.381Z,100908.38
2023-06-17T14:42:43.053Z,100905.00
2023-06-17T14:45:11.903Z,100902.19
2023-06-17T14:47:42.364Z,100894.03
2023-06-17T14:50:12.089Z,100899.47
2023-06-17T14:52:39.208Z,100885.56
2023-06-17T14:55:06.926Z,100891.97
2023-06-17T14:57:33.949Z,100889.59
2023-06-17T15:00:01.790Z,100891.78
2023-06-17T15:02:48.085Z,100891.50
2023-06-17T15:05:15.007Z,100893.00
2023-06-17T15:07:41.352Z,100888.13
2023-06-17T15:10:08.226Z,100903.44
2023-06-17T15:12:34.663Z,100907.56
2023-06-17T15:15:02.422Z,100901.25
2023-06-17T15:17:28.955Z,100907.28
2023-06-17T15:19:55.500Z,100905.59
2023-06-17T15:22:22.292Z,100904.88
2023-06-17T15:24:48.828Z,100904.28
2023-06-17T15:27:15.436Z,100894.44
2023-06-17T15:29:41.912Z,100899.03
2023-06-17T15:32:08.539Z,100898.56
2023-06-17T15:34:35.578Z,100897.25
2023-06-17T15:37:04.891Z,100896.47
2023-06-17T15:39:32.745Z,100901.44
2023-06-17T15:41:59.207Z,100901.94
2023-06-17T15:44:25.646Z,100905.19
2023-06-17T15:46:52.305Z,100904.38
2023-06-17T15:49:20.755Z,100900.94
2023-06-17T15:51:47.178Z,100907.19
2023-06-17T15:54:15.059Z,100904.66
2023-06-17T15:56:47.224Z,100915.97
2023-06-17T15:59:14.369Z,100908.81
2023-06-17T16:01:41.155Z,100908.91
2023-06-17T16:04:40.407Z,100904.19
2023-06-17T16:07:15.279Z,100906.94
2023-06-17T16:09:44.156Z,100904.63
2023-06-17T16:12:12.737Z,100898.94
2023-06-17T16:14:39.397Z,100906.00
2023-06-17T16:17:07.531Z,100904.47
2023-06-17T16:19:36.405Z,100901.06
2023-06-17T16:22:04.497Z,100908.66
2023-06-17T16:24:31.823Z,100905.84
2023-06-17T16:26:58.976Z,100908.09
2023-06-17T16:29:25.821Z,100916.44
2023-06-17T16:31:52.511Z,100917.97
2023-06-17T16:34:19.123Z,100909.06
2023-06-17T16:36:45.863Z,100915.06
2023-06-17T16:39:12.331Z,100910.19
2023-06-17T16:41:41.212Z,100918.00
2023-06-17T16:44:08.860Z,100921.94
2023-06-17T16:46:35.821Z,100928.91
2023-06-17T16:49:04.297Z,100926.28
2023-06-17T16:51:32.371Z,100917.59
2023-06-17T16:54:00.772Z,100915.41
2023-06-17T16:56:28.137Z,100913.72
2023-06-17T16:58:55.049Z,100911.41
2023-06-17T17:01:21.846Z,100911.66
2023-06-17T17:03:48.677Z,100905.78
2023-06-17T17:06:15.404Z,100914.63
2023-06-17T17:08:41.812Z,100915.00
2023-06-17T17:11:08.441Z,100919.13
2023-06-17T17:13:47.874Z,100922.00
2023-06-17T17:16:16.235Z,100929.06
2023-06-17T17:18:42.852Z,100939.00
2023-06-17T17:21:09.314Z,100941.22
2023-06-17T17:23:36.037Z,100941.00
2023-06-17T17:26:03.699Z,100942.69
2023-06-17T17:28:30.328Z,100948.59
2023-06-17T17:30:56.809Z,100953.88
2023-06-17T17:33:24.469Z,100959.59
2023-06-17T17:35:51.590Z,100959.25
2023-06-17T17:38:18.376Z,100955.06
2023-06-17T17:40:45.076Z,100953.38
2023-06-17T17:43:11.458Z,100955.78
2023-06-17T17:45:38.016Z,100955.63
2023-06-17T17:48:04.650Z,100961.38
2023-06-17T17:50:31.521Z,100964.69
2023-06-17T17:52:59.001Z,100958.44
2023-06-17T17:55:25.437Z,100953.31
2023-06-17T17:57:51.859Z,100955.19
2023-06-17T18:00:19.524Z,100951.84
2023-06-17T18:02:46.698Z,100952.53
2023-06-17T18:05:13.424Z,100961.63
2023-06-17T18:07:40.369Z,100955.19
2023-06-17T18:10:07.618Z,100964.22
2023-06-17T18:12:34.219Z,100963.06
2023-06-17T18:15:00.773Z,100957.31
2023-06-17T18:17:27.895Z,100966.31
2023-06-17T18:19:54.317Z,100968.38
2023-06-17T18:22:20.996Z,100968.38
2023-06-17T18:24:47.669Z,100960.16
2023-06-17T18:27:30.869Z,100956.56
2023-06-17T18:30:01.953Z,100964.63
2023-06-17T18:32:28.345Z,100963.00
2023-06-17T18:34:56.875Z,100962.25
2023-06-17T18:37:23.471Z,100959.13
2023-06-17T18:39:52.498Z,100965.28
2023-06-17T18:42:21.364Z,100961.22
2023-06-17T18:44:48.509Z,100969.78
2023-06-17T18:47:14.888Z,100970.91
2023-06-17T18:49:42.127Z,100970.00
2023-06-17T18:52:08.793Z,100964.38
2023-06-17T18:54:35.447Z,100972.06
2023-06-17T18:57:01.902Z,100970.00
2023-06-17T18:59:29.111Z,100979.28
2023-06-17T19:01:55.802Z,100977.38
2023-06-17T19:04:22.235Z,100985.72
2023-06-17T19:06:50.213Z,100989.81
2023-06-17T19:09:16.842Z,100992.56
2023-06-17T19:11:43.467Z,100994.06
2023-06-17T19:14:09.955Z,100996.75
2023-06-17T19:16:36.706Z,100982.41
2023-06-17T19:19:03.112Z,100983.53
2023-06-17T19:21:31.288Z,100988.06
2023-06-17T19:23:57.686Z,100986.44
2023-06-17T19:26:25.704Z,100989.19
2023-06-17T19:28:52.553Z,100993.75
2023-06-17T19:31:18.971Z,100987.16
2023-06-17T19:33:45.683Z,100989.44
2023-06-17T19:36:12.076Z,100997.66
2023-06-17T19:38:39.091Z,100994.56
2023-06-17T19:41:05.615Z,100999.03
2023-06-17T19:43:34.811Z,100998.63
2023-06-17T19:46:04.889Z,100998.25
2023-06-17T19:48:31.712Z,101000.28
2023-06-17T19:51:00.529Z,101000.19
2023-06-17T19:53:27.257Z,101003.91
2023-06-17T19:55:53.962Z,100994.44
2023-06-17T19:58:21.939Z,101002.84
2023-06-17T20:00:48.872Z,101010.94
2023-06-17T20:03:16.009Z,101006.50
2023-06-17T20:05:42.648Z,101007.09
2023-06-17T20:08:09.066Z,101005.59
2023-06-17T20:10:35.622Z,101013.03
2023-06-17T20:13:02.026Z,101021.59
2023-06-17T20:15:30.281Z,101012.25
2023-06-17T20:17:56.760Z,101013.28
2023-06-17T20:20:23.541Z,101010.97
2023-06-17T20:22:50.921Z,101008.88
2023-06-17T20:25:19.194Z,101013.44
2023-06-17T20:27:45.731Z,101015.38
2023-06-17T20:30:12.656Z,101010.47
2023-06-17T20:32:39.170Z,101007.53
2023-06-17T20:35:05.854Z,101008.81
2023-06-17T20:37:32.205Z,101003.19
2023-06-17T20:39:58.780Z,101008.47
2023-06-17T20:42:25.185Z,101014.16
2023-06-17T20:44:52.280Z,101014.38
2023-06-17T20:47:18.996Z,101020.09
2023-06-17T20:49:45.494Z,101020.97
2023-06-17T20:52:11.925Z,101012.69
2023-06-17T20:54:38.273Z,101027.31
2023-06-17T20:57:05.275Z,101019.66
2023-06-17T20:59:32.136Z,101021.13
2023-06-17T21:01:58.541Z,101018.81
2023-06-17T21:04:24.990Z,101030.94
2023-06-17T21:06:51.540Z,101033.13
2023-06-17T21:09:17.940Z,101030.56
2023-06-17T21:11:45.408Z,101030.75
2023-06-17T21:14:13.146Z,101042.34
2023-06-17T21:16:41.143Z,101040.41
2023-06-17T21:19:07.628Z,101048.16
2023-06-17T21:21:33.973Z,101046.41
2023-06-17T21:24:01.906Z,101051.88
2023-06-17T21:26:28.274Z,101050.13
2023-06-17T21:28:56.217Z,101044.41
2023-06-17T21:31:22.609Z,101048.53
2023-06-17T21:33:51.416Z,101036.38
2023-06-17T21:36:18.095Z,101032.91
2023-06-17T21:38:44.679Z,101035.53
2023-06-17T21:41:11.146Z,101028.34
2023-06-17T21:43:37.709Z,101041.63
2023-06-17T21:46:04.689Z,101042.19
2023-06-17T21:48:31.850Z,101042.59
2023-06-17T21:50:58.425Z,101047.09
2023-06-17T21:53:25.110Z,101040.41
2023-06-17T21:55:51.547Z,101044.38
2023-06-17T21:58:19.371Z,101051.09
2023-06-17T22:00:46.634Z,101053.53
2023-06-17T22:03:14.386Z,101060.88
2023-06-17T22:05:41.041Z,101062.28
2023-06-17T22:08:07.623Z,101070.56
2023-06-17T22:10:34.017Z,101074.97
2023-06-17T22:13:00.525Z,101075.88
2023-06-17T22:15:27.147Z,101076.09
2023-06-17T22:17:55.160Z,101074.91
2023-06-17T22:20:22.433Z,101074.47
2023-06-17T22:22:49.248Z,101071.16
2023-06-17T22:25:15.767Z,101070.72
2023-06-17T22:27:42.314Z,101066.63
2023-06-17T22:30:09.403Z,101062.38
2023-06-17T22:32:36.121Z,101069.56
2023-06-17T22:35:03.055Z,101065.69
2023-06-17T22:37:29.411Z,101059.53
2023-06-17T22:39:56.124Z,101053.78
2023-06-17T22:42:22.788Z,101064.44
2023-06-17T22:44:49.447Z,101067.53
2023-06-17T22:47:15.910Z,101063.50
2023-06-17T22:49:42.489Z,101057.28
2023-06-17T22:52:09.006Z,101061.06
2023-06-17T22:54:35.431Z,101057.81
2023-06-17T22:57:02.017Z,101058.75
2023-06-17T22:59:29.159Z,101062.19
2023-06-17T23:01:55.605Z,101057.06
2023-06-17T23:04:22.219Z,101055.44
2023-06-17T23:06:48.766Z,101065.25
2023-06-17T23:09:15.418Z,101072.31
2023-06-17T23:11:41.799Z,101068.31
2023-06-17T23:14:09.269Z,101072.13
2023-06-17T23:16:36.158Z,101076.38
2023-06-17T23:19:02.803Z,101071.53
2023-06-17T23:21:30.400Z,101071.44
2023-06-17T23:23:56.769Z,101077.22
2023-06-17T23:26:23.900Z,101077.69
2023-06-17T23:28:52.987Z,101077.28
2023-06-17T23:31:19.583Z,101082.38
2023-06-17T23:33:46.136Z,101077.28
2023-06-17T23:36:12.648Z,101077.53
2023-06-17T23:38:40.711Z,101079.03
2023-06-17T23:41:07.360Z,101075.28
2023-06-17T23:43:33.841Z,101068.13
2023-06-17T23:46:01.413Z,101070.81
2023-06-17T23:48:28.399Z,101063.59
2023-06-17T23:50:55.129Z,101057.22
2023-06-17T23:53:21.602Z,101043.81
2023-06-17T23:55:48.465Z,101040.22
2023-06-17T23:58:16.228Z,101044.41
